createdAt,value
2023-01-08T00:02:21.636Z,3.83
2023-01-08T00:07:23.342Z,3.81
2023-01-08T00:12:26.611Z,3.78
2023-01-08T00:17:28.361Z,3.68
2023-01-08T00:22:30.138Z,3.43
2023-01-08T00:27:31.856Z,3.18
2023-01-08T00:32:35.031Z,3.01
2023-01-08T00:37:36.761Z,2.81
2023-01-08T00:42:38.497Z,2.59
2023-01-08T00:47:40.279Z,2.33
2023-01-08T00:52:42.277Z,2.08
2023-01-08T00:57:44.056Z,1.87
2023-01-08T01:02:45.816Z,1.74
2023-01-08T01:07:47.851Z,1.66
2023-01-08T01:12:50.193Z,1.53
2023-01-08T01:17:51.872Z,1.35
2023-01-08T01:22:53.505Z,1.16
2023-01-08T01:27:55.248Z,1.04
2023-01-08T01:32:56.925Z,1.01
2023-01-08T01:37:58.740Z,1.04
2023-01-08T01:43:00.453Z,1.02
2023-01-08T01:48:06.701Z,0.98
2023-01-08T01:53:17.893Z,0.93
2023-01-08T01:58:29.732Z,0.96
2023-01-08T02:03:36.007Z,0.99
2023-01-08T02:09:06.872Z,0.98
2023-01-08T02:14:30.477Z,0.96
2023-01-08T02:19:53.012Z,0.90
2023-01-08T02:25:00.735Z,0.82
2023-01-08T02:30:04.523Z,0.76
2023-01-08T02:35:07.598Z,0.69
2023-01-08T02:40:41.979Z,0.66
2023-01-08T02:45:50.598Z,0.61
2023-01-08T02:51:18.125Z,0.48
2023-01-08T02:56:27.208Z,0.35
2023-01-08T03:01:30.067Z,0.27
2023-01-08T03:06:32.514Z,0.27
2023-01-08T03:11:53.634Z,0.31
2023-01-08T03:17:01.051Z,0.32
2023-01-08T03:22:07.850Z,0.27
2023-01-08T03:27:13.872Z,0.17
2023-01-08T03:32:17.535Z,0.15
2023-01-08T03:37:26.696Z,0.13
2023-01-08T03:42:32.043Z,0.11
2023-01-08T03:47:37.378Z,0.07
2023-01-08T03:52:39.085Z,0.02
2023-01-08T03:57:40.880Z,-0.03
2023-01-08T04:02:43.203Z,-0.01
2023-01-08T04:07:44.914Z,0.02
2023-01-08T04:12:46.647Z,-0.02
2023-01-08T04:17:48.371Z,-0.06
2023-01-08T04:22:50.055Z,-0.08
2023-01-08T04:27:51.707Z,-0.10
2023-01-08T04:32:53.350Z,-0.11
2023-01-08T04:37:55.043Z,-0.12
2023-01-08T04:42:56.713Z,-0.13
2023-01-08T04:47:59.326Z,-0.17
2023-01-08T04:53:01.049Z,-0.15
2023-01-08T04:58:02.808Z,-0.05
2023-01-08T05:03:04.493Z,0.05
2023-01-08T05:08:06.187Z,0.12
2023-01-08T05:13:08.116Z,0.12
2023-01-08T05:18:10.260Z,0.05
2023-01-08T05:23:11.910Z,-0.02
2023-01-08T05:28:13.581Z,-0.06
2023-01-08T05:33:15.308Z,-0.09
2023-01-08T05:38:17.031Z,-0.07
2023-01-08T05:43:18.767Z,-0.06
2023-01-08T05:48:20.466Z,0.00
2023-01-08T05:53:22.212Z,0.12
2023-01-08T05:58:24.034Z,0.32
2023-01-08T06:03:25.672Z,0.35
2023-01-08T06:08:28.969Z,0.34
2023-01-08T06:13:30.704Z,0.30
2023-01-08T06:18:32.730Z,0.20
2023-01-08T06:23:34.522Z,0.07
2023-01-08T06:28:36.478Z,-0.05
2023-01-08T06:33:38.169Z,-0.05
2023-01-08T06:38:39.837Z,-0.13
2023-01-08T06:43:41.475Z,-0.21
2023-01-08T06:48:43.143Z,-0.28
2023-01-08T06:53:48.052Z,-0.30
2023-01-08T06:58:49.706Z,-0.30
2023-01-08T07:03:51.380Z,-0.28
2023-01-08T07:08:53.061Z,-0.27
2023-01-08T07:13:56.320Z,-0.23
2023-01-08T07:18:58.261Z,-0.14
2023-01-08T07:24:00.173Z,0.02
2023-01-08T07:29:01.922Z,0.22
2023-01-08T07:34:03.689Z,0.41
2023-01-08T07:39:05.315Z,0.61
2023-01-08T07:44:07.107Z,0.77
2023-01-08T07:49:10.233Z,0.92
2023-01-08T07:54:12.212Z,1.18
2023-01-08T07:59:15.354Z,1.46
2023-01-08T08:04:18.839Z,1.61
2023-01-08T08:09:20.738Z,1.76
2023-01-08T08:14:22.413Z,1.95
2023-01-08T08:19:24.070Z,2.15
2023-01-08T08:24:25.828Z,2.32
2023-01-08T08:29:27.524Z,2.47
2023-01-08T08:34:29.258Z,2.58
2023-01-08T08:39:31.010Z,2.65
2023-01-08T08:44:32.764Z,2.78
2023-01-08T08:49:36.428Z,2.95
2023-01-08T08:54:41.566Z,3.12
2023-01-08T08:59:43.590Z,3.30
2023-01-08T09:04:45.325Z,3.46
2023-01-08T09:09:46.985Z,3.67
2023-01-08T09:14:50.213Z,3.97
2023-01-08T09:19:52.119Z,4.30
2023-01-08T09:24:55.225Z,4.62
2023-01-08T09:29:56.944Z,4.91
2023-01-08T09:34:58.704Z,5.19
2023-01-08T09:40:02.566Z,5.51
2023-01-08T09:45:23.197Z,5.76
2023-01-08T09:50:27.856Z,5.96
2023-01-08T09:55:33.425Z,6.04
2023-01-08T10:00:35.216Z,6.11
2023-01-08T10:05:37.014Z,6.22
2023-01-08T10:10:39.476Z,6.38
2023-01-08T10:15:41.470Z,6.51
2023-01-08T10:20:43.251Z,6.62
2023-01-08T10:26:03.288Z,6.66
2023-01-08T10:31:11.429Z,6.74
2023-01-08T10:36:22.603Z,6.85
2023-01-08T10:41:24.848Z,6.90
2023-01-08T10:46:41.921Z,6.88
2023-01-08T10:51:50.935Z,6.77
2023-01-08T10:56:52.872Z,6.64
2023-01-08T11:01:57.716Z,6.52
2023-01-08T11:07:02.828Z,6.41
2023-01-08T11:12:05.038Z,6.38
2023-01-08T11:17:11.803Z,6.41
2023-01-08T11:22:22.541Z,6.44
2023-01-08T11:27:32.197Z,6.50
2023-01-08T11:32:40.188Z,6.50
2023-01-08T11:38:02.210Z,6.50
2023-01-08T11:43:15.817Z,6.54
2023-01-08T11:48:48.660Z,6.64
2023-01-08T11:54:00.125Z,6.72
2023-01-08T11:59:26.819Z,6.76
2023-01-08T12:04:36.827Z,6.78
2023-01-08T12:09:47.886Z,6.83
2023-01-08T12:15:29.306Z,6.90
2023-01-08T12:20:51.308Z,6.97
2023-01-08T12:26:34.747Z,7.03
2023-01-08T12:32:12.941Z,7.09
2023-01-08T12:37:21.327Z,7.11
2023-01-08T12:42:28.304Z,7.16
2023-01-08T12:47:35.568Z,7.25
2023-01-08T12:52:51.042Z,7.33
2023-01-08T12:58:02.654Z,7.31
2023-01-08T13:03:10.897Z,7.28
2023-01-08T13:08:34.191Z,7.26
2023-01-08T13:13:45.296Z,7.21
2023-01-08T13:19:04.495Z,7.20
2023-01-08T13:24:28.793Z,7.28
2023-01-08T13:29:33.234Z,7.37
2023-01-08T13:34:42.282Z,7.39
2023-01-08T13:39:44.098Z,7.34
2023-01-08T13:44:52.296Z,7.22
2023-01-08T13:49:55.431Z,7.05
2023-01-08T13:54:57.670Z,6.90
2023-01-08T14:00:00.090Z,6.78
2023-01-08T14:05:12.737Z,6.78
2023-01-08T14:10:15.746Z,6.88
2023-01-08T14:15:29.161Z,6.98
2023-01-08T14:20:34.483Z,7.00
2023-01-08T14:25:36.197Z,6.89
2023-01-08T14:30:37.900Z,6.69
2023-01-08T14:35:40.566Z,6.45
2023-01-08T14:40:48.570Z,6.22
2023-01-08T14:45:54.080Z,6.02
2023-01-08T14:51:04.656Z,5.90
2023-01-08T14:56:06.788Z,5.75
2023-01-08T15:02:02.939Z,5.58
2023-01-08T15:07:18.670Z,5.33
2023-01-08T15:12:26.238Z,5.10
2023-01-08T15:17:29.139Z,4.90
2023-01-08T15:22:36.137Z,4.78
2023-01-08T15:27:39.689Z,4.69
2023-01-08T15:32:41.604Z,4.58
2023-01-08T15:37:43.386Z,4.42
2023-01-08T15:43:03.788Z,4.25
2023-01-08T15:48:06.097Z,4.11
2023-01-08T15:53:16.635Z,4.06
2023-01-08T15:58:18.995Z,4.04
2023-01-08T16:03:22.919Z,4.00
2023-01-08T16:08:24.800Z,3.92
2023-01-08T16:13:27.958Z,3.82
2023-01-08T16:18:29.663Z,3.79
2023-01-08T16:23:36.185Z,3.85
2023-01-08T16:28:38.667Z,4.00
2023-01-08T16:33:40.666Z,4.07
2023-01-08T16:38:42.329Z,4.05
2023-01-08T16:43:45.351Z,4.03
2023-01-08T16:48:48.575Z,4.07
2023-01-08T16:53:50.455Z,4.20
2023-01-08T16:58:52.352Z,4.37
2023-01-08T17:03:54.390Z,4.51
2023-01-08T17:08:59.457Z,4.59
2023-01-08T17:14:01.140Z,4.68
2023-01-08T17:19:08.042Z,4.77
2023-01-08T17:24:09.917Z,4.93
2023-01-08T17:29:11.745Z,5.08
2023-01-08T17:34:14.320Z,5.12
2023-01-08T17:39:15.961Z,5.14
2023-01-08T17:44:18.068Z,5.14
2023-01-08T17:49:20.510Z,5.17
2023-01-08T17:54:25.005Z,5.24
2023-01-08T17:59:26.957Z,5.30
2023-01-08T18:04:28.748Z,5.12
2023-01-08T18:09:30.716Z,5.26
2023-01-08T18:14:36.358Z,5.22
2023-01-08T18:19:38.162Z,5.23
2023-01-08T18:24:40.121Z,5.27
2023-01-08T18:29:42.101Z,5.27
2023-01-08T18:34:43.841Z,5.26
2023-01-08T18:39:45.862Z,5.22
2023-01-08T18:44:48.563Z,5.17
2023-01-08T18:49:59.240Z,5.14
2023-01-08T18:55:01.131Z,5.18
2023-01-08T19:00:04.637Z,5.26
2023-01-08T19:05:06.749Z,5.32
2023-01-08T19:10:10.890Z,5.34
2023-01-08T19:15:13.047Z,5.32
2023-01-08T19:20:14.715Z,5.29
2023-01-08T19:25:17.112Z,5.26
2023-01-08T19:30:19.300Z,5.29
2023-01-08T19:35:21.029Z,5.41
2023-01-08T19:40:23.058Z,5.55
2023-01-08T19:45:24.824Z,5.59
2023-01-08T19:50:26.543Z,5.56
2023-01-08T19:55:28.356Z,5.52
2023-01-08T20:00:37.530Z,5.48
2023-01-08T20:05:42.699Z,5.52
2023-01-08T20:10:44.731Z,5.64
2023-01-08T20:15:55.503Z,5.72
2023-01-08T20:21:06.644Z,5.69
2023-01-08T20:26:14.628Z,5.62
2023-01-08T20:31:20.349Z,5.60
2023-01-08T20:36:24.382Z,5.56
2023-01-08T20:41:26.599Z,5.60
2023-01-08T20:46:29.536Z,5.67
2023-01-08T20:51:36.995Z,5.80
2023-01-08T20:56:39.159Z,5.91
2023-01-08T21:01:41.100Z,5.95
2023-01-08T21:06:43.141Z,5.92
2023-01-08T21:11:45.564Z,5.85
2023-01-08T21:16:47.615Z,5.80
2023-01-08T21:21:49.467Z,5.78
2023-01-08T21:26:51.213Z,5.86
2023-01-08T21:31:53.268Z,6.01
2023-01-08T21:36:55.042Z,6.09
2023-01-08T21:42:15.749Z,6.10
2023-01-08T21:47:18.234Z,6.09
2023-01-08T21:52:38.697Z,6.08
2023-01-08T21:57:40.678Z,6.05
2023-01-08T22:02:42.358Z,6.03
2023-01-08T22:07:44.189Z,6.02
2023-01-08T22:12:50.399Z,6.02
2023-01-08T22:17:52.128Z,5.97
2023-01-08T22:22:53.889Z,5.91
2023-01-08T22:27:56.259Z,5.85
2023-01-08T22:32:57.935Z,5.83
2023-01-08T22:37:59.666Z,5.87
2023-01-08T22:43:01.378Z,5.91
2023-01-08T22:48:04.920Z,5.85
2023-01-08T22:53:06.664Z,5.68
2023-01-08T22:58:08.652Z,5.41
2023-01-08T23:03:11.503Z,5.11
2023-01-08T23:08:13.267Z,4.86
2023-01-08T23:13:15.150Z,4.66
2023-01-08T23:18:17.082Z,4.48
2023-01-08T23:23:18.984Z,4.12
2023-01-08T23:28:20.697Z,4.06
2023-01-08T23:33:22.444Z,3.81
2023-01-08T23:38:24.238Z,3.54
2023-01-08T23:43:26.403Z,3.36
2023-01-08T23:48:28.077Z,3.29
2023-01-08T23:53:29.921Z,3.24
2023-01-08T23:58:31.672Z,3.13
